Northville, South Dakota
Current Conditions -  °F | °C
As of 9:53 AM on Friday 19 Dec 2014 (Local Time) from KABR Reporting Station
Haze Haze  
Wind Chill: 17°   Ceiling: 400
Heat Index: 28°   Visibility: 4mi
Dew Point: 26°   Wind: 15mph
Humidity: 92%   Direction: 190°S
Pressure: 30.06"   Gusts: NA
Location:  45.16°N, 98.58°W
Report Text: KABR 191553Z AUTO 19013KT 4SM BR OVC004 M02/M03 A3006 RMK AO2 SLP196 T10221033
Loading
Personal Weather Stations






























Interactive Weather Map New forecast layout! Learn more

10-Day Weather Forecast

Advertisements
Track Severe Weather on mobile